Latest Weather Observations for Roebourne Airport

IDW60801

Issued at 7:32 pm WST Sunday 1 February 2015 (issued every 30 minutes, with the page automatically refreshed every 10 minutes)

About weather observations | Map of weather stations | Latest weather observations for WA | Other Formats
Station Details ID: 004090 Name: ROEBOURNE AERO Lat: -20.76 Lon: 117.16 Height: 10.7 m
Data from the previous 72 hours. | See also: Recent months at Roebourne Airport
Date/Time
WST
Temp
°C
App
Temp
°C
Dew
Point
Rel
Hum
%
Delta-T
°C
Wind Press
QNH
hPa
Press
MSL
hPa
Rain
since 9 am
mm
Dir
 
Spd
km/h
Gust
km/h
Spd
kts
Gust
kts
01/07:30pm 29.8 29.2 19.8 55 6.6 WNW 22 30 12 16 1008.7 1008.7 0.0
01/07:00pm 30.3 29.4 19.0 50 7.3 WNW 22 28 12 15 1008.6 1008.6 0.0
01/06:30pm 30.8 29.5 19.8 52 7.2 NW 26 35 14 19 1008.3 1008.3 0.0
01/06:00pm 31.6 29.2 19.2 47 8.1 NW 30 35 16 19 1008.3 1008.3 0.0
01/05:30pm 32.9 30.9 18.3 42 9.5 NW 26 33 14 18 1008.1 1008.1 0.0
01/05:00pm 34.0 32.3 18.9 41 9.9 NNW 26 37 14 20 1008.0 1008.0 0.0
01/04:30pm 34.1 31.7 18.2 39 10.3 NNW 28 35 15 19 1007.9 1007.9 0.0
01/04:00pm 34.5 32.6 18.5 38 10.5 NW 26 33 14 18 1007.9 1007.9 0.0
01/03:30pm 35.5 34.6 19.8 39 10.5 NNW 24 33 13 18 1008.1 1008.1 0.0
01/03:00pm 34.3 32.6 19.9 42 9.6 NNW 28 37 15 20 1008.4 1008.4 0.0
01/02:30pm 34.4 32.4 20.0 42 9.6 NNW 30 39 16 21 1008.7 1008.7 0.0
01/02:00pm 35.1 32.9 19.5 40 10.4 NNW 30 37 16 20 1008.9 1008.9 0.0
01/01:30pm 34.8 32.3 18.8 39 10.5 NNW 30 39 16 21 1009.2 1009.2 0.0
01/01:00pm 35.0 33.7 18.1 36 11.0 NNW 22 35 12 19 1009.2 1009.2 0.0
01/12:30pm 35.2 34.0 18.3 36 11.0 NNW 22 33 12 18 1009.4 1009.4 0.0
01/12:00pm 34.4 33.8 17.6 37 10.8 NNW 17 32 9 17 1009.7 1009.7 0.0
01/11:30am 34.6 34.6 19.0 39 10.3 WNW 17 24 9 13 1010.1 1010.1 0.0
01/11:00am 34.1 35.3 18.2 39 10.3 N 9 17 5 9 1010.3 1010.3 0.0
01/10:30am 32.9 33.8 18.3 42 9.5 NNW 11 19 6 10 1010.6 1010.6 0.0
01/10:00am 32.4 32.9 20.0 48 8.2 NW 17 24 9 13 1010.8 1010.8 0.0
01/09:30am 32.0 33.8 20.3 50 7.8 WNW 11 17 6 9 1010.9 1010.9 0.0
01/09:00am 30.5 32.1 20.7 55 6.5 WSW 13 20 7 11 1011.1 1011.1 0.0
01/08:30am 29.8 33.4 21.2 60 5.7 WSW 4 11 2 6 1011.0 1011.0 0.0
01/08:00am 29.3 32.6 21.8 64 5.1 SSW 7 11 4 6 1010.8 1010.8 0.0
01/07:30am 28.2 31.2 22.0 69 4.2 SW 9 15 5 8 1010.7 1010.7 0.0
01/07:00am 28.2 31.4 21.7 68 4.4 SSW 7 9 4 5 1010.6 1010.6 0.0
01/06:30am 25.6 28.3 20.6 74 3.3 SSW 7 9 4 5 1010.4 1010.4 0.0
01/06:00am 24.4 26.2 19.5 74 3.1 SSW 9 9 5 5 1009.9 1009.9 0.0
01/05:30am 24.6 26.6 19.2 72 3.5 SSW 7 7 4 4 1009.7 1009.7 0.0
01/05:00am 24.8 26.8 19.2 71 3.6 SSW 7 7 4 4 1009.3 1009.3 0.0
01/04:30am 25.5 27.9 19.6 70 3.8 SSW 6 6 3 3 1008.9 1008.9 0.0
01/04:00am 25.8 28.1 19.9 70 3.8 SW 7 7 4 4 1008.8 1008.8 0.0
01/03:30am 26.2 28.9 20.3 70 3.9 SW 6 7 3 4 1008.7 1008.7 0.0
01/03:00am 27.2 30.1 21.0 69 4.1 W 7 9 4 5 1008.7 1008.7 0.0
01/02:30am 27.7 30.4 21.3 68 4.3 W 9 17 5 9 1008.7 1008.7 0.0
01/02:00am 27.1 29.8 20.7 68 4.2 WNW 7 9 4 5 1008.8 1008.8 0.0
01/01:30am 27.3 29.7 20.9 68 4.2 WNW 9 11 5 6 1008.9 1008.9 0.0
01/01:00am 27.7 30.4 21.3 68 4.3 WNW 9 13 5 7 1009.0 1009.0 0.0
01/12:30am 27.9 30.4 21.0 66 4.6 NW 9 13 5 7 1009.1 1009.1 0.0
01/12:00am 28.1 30.4 21.4 67 4.5 WNW 11 15 6 8 1009.3 1009.3 0.0
 
Date/Time
WST
Temp
°C
App
Temp
°C
Dew
Point
Rel
Hum
%
Delta-T
°C
Wind Press
QNH
hPa
Press
MSL
hPa
Rain
since 9 am
mm
Dir
 
Spd
km/h
Gust
km/h
Spd
kts
Gust
kts
31/11:30pm 28.0 30.8 21.5 67 4.3 NW 9 11 5 6 1009.3 1009.3 0.0
31/11:00pm 27.8 30.5 21.3 67 4.3 NW 9 9 5 5 1009.3 1009.3 0.0
31/10:30pm 28.0 30.7 21.3 67 4.5 NW 9 11 5 6 1009.2 1009.2 0.0
31/10:00pm 28.3 30.3 20.8 63 5.0 NW 11 15 6 8 1009.1 1009.1 0.0
31/09:30pm 28.4 30.3 21.4 66 4.7 NW 13 17 7 9 1008.7 1008.7 0.0
31/09:00pm 28.7 29.8 21.2 64 5.0 NW 17 24 9 13 1008.6 1008.6 0.0
31/08:30pm 28.6 29.4 21.4 65 4.8 NW 19 24 10 13 1008.3 1008.2 0.0
31/08:00pm 28.6 29.4 21.4 65 4.8 NW 19 22 10 12 1008.0 1007.9 0.0
31/07:30pm 28.7 29.4 21.2 64 5.0 NW 19 24 10 13 1007.6 1007.5 0.0
31/07:00pm 29.0 28.5 20.7 61 5.5 NNW 24 30 13 16 1007.2 1007.1 0.0
31/06:30pm 29.9 29.3 20.5 57 6.2 NW 24 32 13 17 1006.8 1006.7 0.0
31/06:00pm 30.4 28.6 20.3 54 6.7 NNW 30 37 16 20 1006.6 1006.5 0.0
31/05:30pm 31.0 29.8 20.9 55 6.7 NNW 28 33 15 18 1006.4 1006.3 0.0
31/05:00pm 31.4 30.0 20.4 52 7.3 N 28 37 15 20 1006.2 1006.1 0.0
31/04:30pm 31.8 30.5 20.7 51 7.4 N 28 35 15 19 1006.3 1006.2 0.0
31/04:00pm 32.4 30.9 20.3 48 8.1 N 28 35 15 19 1006.3 1006.2 0.0
31/03:30pm 33.0 31.5 20.2 47 8.5 N 28 37 15 20 1006.4 1006.3 0.0
31/03:00pm 32.6 30.8 19.5 46 8.6 NNW 28 39 15 21 1006.5 1006.4 0.0
31/02:30pm 33.6 31.5 18.1 39 10.0 N 26 37 14 20 1006.7 1006.6 0.0
31/02:00pm 34.0 32.6 18.9 41 9.9 N 24 33 13 18 1006.8 1006.7 0.0
31/01:30pm 34.4 32.8 18.4 38 10.4 NNW 24 35 13 19 1007.1 1007.0 0.0
31/01:00pm 33.5 32.1 18.0 39 10.0 NNW 22 30 12 16 1007.2 1007.1 0.0
31/12:30pm 33.8 33.0 17.9 38 10.3 NNW 19 28 10 15 1007.5 1007.4 0.0
31/12:00pm 33.9 34.0 19.2 42 9.7 N 17 24 9 13 1007.7 1007.6 0.0
31/11:30am 32.7 33.2 19.2 44 8.9 NW 15 26 8 14 1008.0 1007.9 0.0
31/11:00am 32.4 33.1 19.6 46 8.4 NNW 15 24 8 13 1008.3 1008.2 0.0
31/10:30am 32.6 33.2 19.5 46 8.6 NNW 15 26 8 14 1008.6 1008.6 0.0
31/10:00am 31.5 31.6 19.2 48 8.0 NNW 17 30 9 16 1008.9 1008.9 0.0
31/09:30am 32.5 32.0 19.0 44 8.8 NW 20 32 11 17 1008.9 1008.9 0.0
31/09:00am 30.5 32.5 20.7 55 6.5 NNE 11 19 6 10 1008.8 1008.8 0.0
31/08:30am 30.0 32.2 21.1 59 5.9 NNE 11 20 6 11 1009.1 1009.1 0.0
31/08:00am 28.6 30.7 20.9 63 5.1 N 11 19 6 10 1009.1 1009.1 0.0
31/07:30am 28.3 31.0 21.3 65 4.7 NNE 9 13 5 7 1008.9 1008.9 0.0
31/07:00am 26.1 30.5 21.3 75 3.2 CALM 0 0 0 0 1008.6 1008.6 0.0
31/06:30am 24.0 25.4 20.3 80 2.4 NNE 13 15 7 8 1008.0 1007.9 0.0
31/06:00am 22.4 25.5 18.6 79 2.4 CALM 0 0 0 0 1007.7 1007.6 0.0
31/05:30am 22.7 26.1 19.3 81 2.2 CALM 0 0 0 0 1007.6 1007.5 0.0
31/05:00am 22.9 26.0 18.7 77 2.7 CALM 0 0 0 0 1007.4 1007.3 0.0
31/04:30am 23.8 27.6 20.1 80 2.4 CALM 0 0 0 0 1007.3 1007.2 0.0
31/04:00am 23.7 27.1 19.4 77 2.8 CALM 0 0 0 0 1007.2 1007.1 0.0
31/03:30am 24.1 27.7 19.8 77 2.8 CALM 0 4 0 2 1007.3 1007.2 0.0
31/03:00am 24.5 27.1 20.4 78 2.7 SSW 7 9 4 5 1007.3 1007.2 0.0
31/02:30am 24.7 26.8 20.2 76 2.9 SSW 9 11 5 6 1007.3 1007.2 0.0
31/02:00am 25.4 27.7 20.6 75 3.1 SW 9 13 5 7 1007.4 1007.3 0.0
31/01:30am 25.7 28.0 20.7 74 3.3 SW 9 11 5 6 1007.6 1007.5 0.0
31/01:00am 26.6 28.4 21.1 72 3.6 WSW 13 19 7 10 1007.7 1007.6 0.0
31/12:30am 27.0 28.9 21.3 71 3.8 WSW 13 22 7 12 1007.9 1007.8 0.0
31/12:00am 27.2 28.2 21.0 69 4.1 W 17 22 9 12 1007.9 1007.8 0.0
 
Date/Time
WST
Temp
°C
App
Temp
°C
Dew
Point
Rel
Hum
%
Delta-T
°C
Wind Press
QNH
hPa
Press
MSL
hPa
Rain
since 9 am
mm
Dir
 
Spd
km/h
Gust
km/h
Spd
kts
Gust
kts
30/11:30pm 27.4 28.1 21.2 69 4.1 W 19 24 10 13 1008.2 1008.1 0.0
30/11:00pm 27.6 28.1 21.2 68 4.3 W 20 26 11 14 1008.2 1008.1 0.0
30/10:30pm 27.6 28.3 21.2 68 4.3 WNW 19 26 10 14 1008.1 1008.0 0.0
30/10:00pm 27.7 27.7 21.0 67 4.4 WNW 22 28 12 15 1007.9 1007.8 0.0
30/09:30pm 27.7 28.3 21.3 68 4.3 WNW 20 26 11 14 1007.6 1007.5 0.0
30/09:00pm 27.8 28.5 21.6 69 4.2 WNW 20 28 11 15 1007.2 1007.1 0.0
30/08:30pm 28.0 27.5 21.5 67 4.3 WNW 26 33 14 18 1006.8 1006.7 0.0
30/08:00pm 28.2 28.1 21.5 67 4.5 WNW 24 32 13 17 1006.5 1006.4 0.0
30/07:30pm 28.5 28.0 21.5 66 4.7 WNW 26 32 14 17 1006.0 1005.9 0.0
30/07:00pm 29.1 28.9 21.3 62 5.2 WNW 24 32 13 17 1005.5 1005.4 0.0
30/06:30pm 29.7 28.9 21.6 61 5.4 NW 28 35 15 19 1005.1 1005.0 0.0
30/06:00pm 30.3 29.7 21.9 60 5.7 NW 28 37 15 20 1004.8 1004.7 0.0
30/05:30pm 31.5 30.1 20.4 51 7.4 NW 28 33 15 18 1004.8 1004.7 0.0
30/05:00pm 32.0 30.2 19.6 47 8.2 NW 28 35 15 19 1004.9 1004.8 0.0
30/04:30pm 32.0 30.6 19.6 47 8.2 NW 26 37 14 20 1004.8 1004.7 0.0
30/04:00pm 32.9 31.3 20.8 49 8.1 NW 30 37 16 20 1004.9 1004.8 0.0
30/03:30pm 32.8 31.7 21.0 50 7.9 NNW 28 33 15 18 1005.2 1005.1 0.0
30/03:00pm 33.4 32.8 20.5 46 8.6 NW 24 35 13 19 1005.3 1005.2 0.0
30/02:30pm 33.8 32.8 21.2 47 8.5 NNW 28 41 15 22 1005.5 1005.4 0.0
30/02:00pm 33.9 33.7 21.3 47 8.5 N 24 35 13 19 1005.8 1005.7 0.0
30/01:30pm 33.6 33.9 20.7 46 8.7 NNW 20 32 11 17 1006.1 1006.0 0.0
30/01:00pm 33.1 33.1 20.9 48 8.2 NNW 22 33 12 18 1006.4 1006.3 0.0
30/12:30pm 33.9 34.1 21.3 47 8.5 N 22 30 12 16 1006.8 1006.7 0.0
30/12:00pm 33.2 33.6 21.0 48 8.2 N 20 28 11 15 1007.1 1007.0 0.0
30/11:30am 33.6 34.4 21.7 49 8.1 NNE 20 30 11 16 1007.4 1007.3 0.0
30/11:00am 32.2 33.8 21.4 53 7.3 N 15 24 8 13 1007.7 1007.6 0.0
30/10:30am 32.7 35.3 21.9 53 7.3 NNW 11 19 6 10 1007.9 1007.8 0.0
30/10:00am 31.5 33.3 20.4 51 7.4 NE 11 15 6 8 1008.2 1008.1 0.0
30/09:30am 31.7 34.1 20.9 52 7.2 ENE 9 17 5 9 1008.4 1008.4 0.0
30/09:00am 30.2 33.1 21.0 58 6.1 SSE 7 11 4 6 1008.8 1008.8 0.0
30/08:30am 29.0 32.3 21.5 64 5.0 W 6 9 3 5 1008.6 1008.6 0.0
30/08:00am 28.2 32.0 21.7 68 4.4 S 4 9 2 5 1008.5 1008.5 0.0
30/07:30am 28.1 31.6 22.1 70 4.0 WSW 7 11 4 6 1008.5 1008.5 0.0
30/07:00am 27.1 30.7 22.1 74 3.4 SSW 6 9 3 5 1008.1 1008.0 0.0
30/06:30am 26.0 29.3 21.9 78 2.7 SW 7 9 4 5 1007.7 1007.6 0.0
30/06:00am 25.5 27.9 21.6 79 2.6 WNW 11 13 6 7 1006.9 1006.8 0.0
30/05:30am 25.6 28.1 21.7 79 2.6 WNW 11 13 6 7 1006.7 1006.6 0.0
30/05:00am 25.8 28.0 21.9 79 2.6 W 13 17 7 9 1006.3 1006.2 0.0
30/04:30am 25.7 28.4 22.2 81 2.3 NW 11 15 6 8 1006.1 1006.0 0.0
30/04:00am 25.5 29.0 22.2 82 2.2 W 7 9 4 5 1006.2 1006.1 0.0
30/03:30am 25.3 28.8 21.8 81 2.3 WNW 6 7 3 4 1005.9 1005.8 0.0
30/03:00am 25.7 28.3 22.0 80 2.5 WSW 11 15 6 8 1005.9 1005.8 0.0
30/02:30am 26.1 28.4 22.0 78 2.7 WNW 13 17 7 9 1005.8 1005.7 0.0
30/02:00am 26.1 28.7 22.0 78 2.7 WNW 11 17 6 9 1005.8 1005.7 0.0
30/01:30am 26.3 28.5 21.9 77 2.9 WNW 13 19 7 10 1006.1 1006.0 0.0
30/01:00am 26.4 27.9 22.0 77 3.0 WNW 17 19 9 10 1006.4 1006.3 0.0
30/12:30am 26.7 29.0 22.1 76 3.1 WSW 13 17 7 9 1007.1 1007.0 0.0
30/12:00am 26.7 28.4 22.3 77 3.0 WNW 17 22 9 12 1006.7 1006.6 0.0
 
Date/Time
WST
Temp
°C
App
Temp
°C
Dew
Point
Rel
Hum
%
Delta-T
°C
Wind Press
QNH
hPa
Press
MSL
hPa
Rain
since 9 am
mm
Dir
 
Spd
km/h
Gust
km/h
Spd
kts
Gust
kts
29/11:30pm 26.8 28.1 22.4 77 3.0 W 19 22 10 12 1007.2 1007.1 0.0
29/11:00pm 26.9 29.0 22.5 77 3.0 W 15 20 8 11 1007.3 1007.2 0.0
29/10:30pm 26.9 28.3 22.5 77 3.0 WNW 19 24 10 13 1007.2 1007.1 0.0
29/10:00pm 26.9 28.6 22.3 76 3.1 WNW 17 20 9 11 1007.3 1007.2 0.0
29/09:30pm 26.9 28.5 22.1 75 3.2 NW 17 22 9 12 1006.5 1006.4 0.0
29/09:00pm 27.4 28.5 21.9 72 3.7 W 19 24 10 13 1007.0 1006.9 0.0
29/08:30pm 27.7 28.2 22.0 71 3.8 W 22 30 12 16 1006.6 1006.5 0.0
29/08:00pm 28.0 28.2 22.0 70 4.0 WSW 24 30 13 16 1005.9 1005.8 0.0

Other Formats:

Comma delimited format used in spreadsheet applications
http://www.bom.gov.au/fwo/IDW60801/IDW60801.94308.axf

JavaScript Object Notation format (JSON) in row-major order
http://www.bom.gov.au/fwo/IDW60801/IDW60801.94308.json